createdAt,value
2022-07-30T00:01:35.688Z,19.80
2022-07-30T00:04:04.096Z,19.70
2022-07-30T00:06:32.634Z,19.70
2022-07-30T00:08:59.596Z,19.70
2022-07-30T00:11:28.011Z,19.70
2022-07-30T00:13:55.950Z,19.70
2022-07-30T00:16:23.434Z,19.70
2022-07-30T00:18:50.888Z,19.60
2022-07-30T00:21:31.489Z,19.60
2022-07-30T00:24:04.908Z,19.60
2022-07-30T00:26:33.093Z,19.60
2022-07-30T00:29:00.245Z,19.60
2022-07-30T00:31:28.932Z,19.60
2022-07-30T00:33:56.823Z,19.70
2022-07-30T00:36:24.462Z,19.70
2022-07-30T00:38:52.252Z,19.70
2022-07-30T00:41:19.435Z,19.70
2022-07-30T00:43:46.684Z,19.80
2022-07-30T00:46:14.981Z,19.80
2022-07-30T00:48:42.979Z,19.90
2022-07-30T00:51:10.588Z,19.90
2022-07-30T00:53:38.470Z,19.90
2022-07-30T00:56:06.845Z,19.90
2022-07-30T00:58:34.076Z,19.90
2022-07-30T01:01:01.375Z,19.90
2022-07-30T01:03:28.848Z,19.90
2022-07-30T01:05:56.980Z,20.00
2022-07-30T01:08:24.035Z,20.00
2022-07-30T01:10:52.331Z,20.00
2022-07-30T01:13:19.663Z,20.00
2022-07-30T01:15:47.851Z,20.00
2022-07-30T01:18:16.193Z,20.00
2022-07-30T01:21:03.324Z,20.00
2022-07-30T01:23:43.282Z,20.10
2022-07-30T01:26:17.658Z,20.10
2022-07-30T01:28:55.098Z,20.00
2022-07-30T01:31:26.389Z,20.00
2022-07-30T01:33:57.122Z,20.00
2022-07-30T01:36:27.782Z,20.00
2022-07-30T01:38:55.746Z,20.00
2022-07-30T01:41:24.399Z,20.00
2022-07-30T01:43:52.669Z,20.00
2022-07-30T01:46:23.099Z,20.00
2022-07-30T01:48:51.828Z,20.00
2022-07-30T01:51:20.182Z,20.00
2022-07-30T01:53:53.557Z,20.00
2022-07-30T01:56:25.167Z,20.10
2022-07-30T01:58:56.019Z,20.00
2022-07-30T02:01:28.035Z,20.10
2022-07-30T02:04:03.280Z,20.10
2022-07-30T02:07:19.948Z,20.10
2022-07-30T02:10:02.665Z,20.10
2022-07-30T02:12:36.653Z,20.10
2022-07-30T02:15:37.945Z,20.20
2022-07-30T02:18:17.561Z,20.20
2022-07-30T02:21:02.562Z,20.20
2022-07-30T02:23:44.873Z,20.20
2022-07-30T02:26:21.872Z,20.30
2022-07-30T02:28:55.848Z,20.20
2022-07-30T02:31:27.753Z,20.20
2022-07-30T02:34:01.344Z,20.20
2022-07-30T02:36:30.943Z,20.10
2022-07-30T02:38:59.377Z,20.10
2022-07-30T02:41:29.695Z,20.10
2022-07-30T02:43:58.131Z,20.00
2022-07-30T02:46:26.483Z,20.00
2022-07-30T02:49:22.493Z,19.90
2022-07-30T02:51:52.015Z,19.90
2022-07-30T02:54:20.405Z,19.80
2022-07-30T02:56:50.297Z,19.70
2022-07-30T02:59:20.537Z,19.70
2022-07-30T03:01:49.371Z,19.60
2022-07-30T03:04:20.769Z,19.60
2022-07-30T03:06:50.004Z,19.50
2022-07-30T03:09:18.445Z,19.50
2022-07-30T03:11:48.511Z,19.50
2022-07-30T03:14:17.059Z,19.50
2022-07-30T03:16:49.141Z,19.40
2022-07-30T03:19:20.904Z,19.40
2022-07-30T03:21:50.289Z,19.40
2022-07-30T03:24:20.045Z,19.30
2022-07-30T03:26:48.444Z,19.30
2022-07-30T03:29:18.301Z,19.30
2022-07-30T03:31:50.251Z,19.30
2022-07-30T03:34:19.267Z,19.30
2022-07-30T03:36:47.264Z,19.30
2022-07-30T03:39:15.390Z,19.20
2022-07-30T03:41:43.384Z,19.20
2022-07-30T03:44:15.345Z,19.20
2022-07-30T03:46:43.417Z,19.30
2022-07-30T03:49:11.987Z,19.30
2022-07-30T03:51:43.478Z,19.30
2022-07-30T03:54:13.685Z,19.30
2022-07-30T03:56:42.104Z,19.20
2022-07-30T03:59:18.246Z,19.30
2022-07-30T04:01:45.965Z,19.30
2022-07-30T04:04:21.505Z,19.30
2022-07-30T04:06:50.647Z,19.30
2022-07-30T04:09:20.477Z,19.30
2022-07-30T04:11:49.452Z,19.30
2022-07-30T04:14:21.874Z,19.30
2022-07-30T04:16:59.399Z,19.30
2022-07-30T04:19:33.045Z,19.30
2022-07-30T04:22:02.269Z,19.30
2022-07-30T04:24:32.529Z,19.30
2022-07-30T04:27:02.335Z,19.30
2022-07-30T04:29:30.952Z,19.20
2022-07-30T04:31:58.602Z,19.20
2022-07-30T04:34:28.885Z,19.20
2022-07-30T04:36:57.477Z,19.20
2022-07-30T04:39:25.517Z,19.20
2022-07-30T04:41:52.749Z,19.20
2022-07-30T04:44:40.155Z,19.20
2022-07-30T04:47:27.567Z,19.20
2022-07-30T04:50:11.901Z,19.30
2022-07-30T04:52:40.065Z,19.30
2022-07-30T04:55:10.277Z,19.20
2022-07-30T04:57:40.496Z,19.30
2022-07-30T05:00:09.747Z,19.20
2022-07-30T05:02:42.182Z,19.20
2022-07-30T05:05:12.785Z,19.30
2022-07-30T05:07:40.196Z,19.30
2022-07-30T05:10:11.565Z,19.30
2022-07-30T05:12:40.504Z,19.30
2022-07-30T05:15:10.456Z,19.30
2022-07-30T05:17:38.569Z,19.30
2022-07-30T05:20:09.672Z,19.30
2022-07-30T05:22:55.339Z,19.30
2022-07-30T05:25:24.171Z,19.30
2022-07-30T05:27:54.857Z,19.30
2022-07-30T05:30:27.586Z,19.30
2022-07-30T05:32:57.593Z,19.30
2022-07-30T05:35:25.618Z,19.30
2022-07-30T05:37:54.294Z,19.30
2022-07-30T05:40:23.556Z,19.20
2022-07-30T05:43:06.820Z,19.20
2022-07-30T05:45:34.594Z,19.20
2022-07-30T05:48:01.987Z,19.20
2022-07-30T05:50:30.254Z,19.20
2022-07-30T05:52:58.768Z,19.20
2022-07-30T05:55:51.974Z,19.20
2022-07-30T05:58:38.007Z,19.30
2022-07-30T06:01:06.040Z,19.30
2022-07-30T06:03:35.106Z,19.30
2022-07-30T06:06:37.684Z,19.30
2022-07-30T06:09:05.403Z,19.40
2022-07-30T06:11:32.742Z,19.40
2022-07-30T06:14:01.061Z,19.40
2022-07-30T06:16:28.706Z,19.40
2022-07-30T06:18:56.765Z,19.40
2022-07-30T06:22:06.242Z,19.40
2022-07-30T06:24:25.669Z,19.50
2022-07-30T06:27:06.365Z,19.50
2022-07-30T06:29:33.540Z,19.50
2022-07-30T06:32:01.541Z,19.60
2022-07-30T06:34:28.873Z,19.60
2022-07-30T06:36:56.581Z,19.70
2022-07-30T06:39:56.386Z,19.70
2022-07-30T06:42:27.513Z,19.80
2022-07-30T06:45:20.633Z,19.80
2022-07-30T06:48:07.970Z,19.80
2022-07-30T06:50:37.155Z,19.80
2022-07-30T06:53:04.480Z,19.80
2022-07-30T06:55:53.058Z,19.80
2022-07-30T06:58:28.491Z,19.90
2022-07-30T07:01:23.514Z,19.90
2022-07-30T07:03:51.449Z,20.00
2022-07-30T07:06:18.790Z,19.90
2022-07-30T07:08:46.029Z,19.90
2022-07-30T07:11:17.040Z,20.00
2022-07-30T07:13:53.574Z,20.00
2022-07-30T07:16:31.295Z,20.00
2022-07-30T07:19:02.791Z,20.10
2022-07-30T07:21:30.287Z,20.10
2022-07-30T07:24:00.265Z,20.20
2022-07-30T07:26:52.133Z,20.30
2022-07-30T07:29:20.576Z,20.30
2022-07-30T07:32:05.242Z,20.30
2022-07-30T07:34:35.786Z,20.30
2022-07-30T07:37:03.325Z,20.30
2022-07-30T07:39:30.757Z,20.30
2022-07-30T07:41:59.081Z,20.30
2022-07-30T07:44:29.584Z,20.30
2022-07-30T07:46:56.662Z,20.40
2022-07-30T07:49:27.710Z,20.40
2022-07-30T07:51:55.004Z,20.40
2022-07-30T07:54:23.919Z,20.50
2022-07-30T07:56:56.779Z,20.50
2022-07-30T07:59:40.732Z,20.50
2022-07-30T08:02:24.518Z,20.60
2022-07-30T08:05:05.724Z,20.70
2022-07-30T08:07:53.012Z,20.80
2022-07-30T08:10:49.224Z,20.80
2022-07-30T08:13:51.644Z,20.90
2022-07-30T08:16:35.487Z,21.00
2022-07-30T08:19:27.616Z,21.20
2022-07-30T08:22:15.206Z,21.30
2022-07-30T08:24:42.404Z,21.50
2022-07-30T08:27:09.703Z,21.50
2022-07-30T08:29:37.661Z,21.60
2022-07-30T08:32:06.116Z,21.70
2022-07-30T08:34:36.606Z,21.80
2022-07-30T08:37:04.496Z,21.90
2022-07-30T08:39:31.925Z,22.00
2022-07-30T08:42:01.565Z,22.00
2022-07-30T08:44:31.303Z,22.10
2022-07-30T08:47:00.270Z,22.10
2022-07-30T08:49:42.064Z,22.20
2022-07-30T08:52:11.234Z,22.20
2022-07-30T08:54:42.374Z,22.30
2022-07-30T08:57:12.536Z,22.30
2022-07-30T09:00:00.080Z,22.40
2022-07-30T09:02:31.778Z,22.50
2022-07-30T09:05:05.280Z,22.50
2022-07-30T09:07:34.546Z,22.60
2022-07-30T09:10:08.483Z,22.70
2022-07-30T09:12:44.863Z,22.70
2022-07-30T09:15:17.272Z,22.80
2022-07-30T09:18:02.806Z,22.80
2022-07-30T09:20:37.520Z,22.80
2022-07-30T09:23:08.329Z,22.90
2022-07-30T09:26:01.063Z,22.90
2022-07-30T09:28:46.820Z,22.90
2022-07-30T09:31:14.488Z,23.00
2022-07-30T09:34:31.584Z,23.10
2022-07-30T09:37:08.936Z,23.20
2022-07-30T09:39:56.604Z,23.30
2022-07-30T09:43:11.069Z,23.40
2022-07-30T09:45:57.498Z,23.50
2022-07-30T09:48:28.055Z,23.50
2022-07-30T09:50:57.662Z,23.60
2022-07-30T09:53:25.259Z,23.50
2022-07-30T09:55:52.947Z,23.50
2022-07-30T09:58:27.192Z,23.50
2022-07-30T10:00:59.688Z,23.50
2022-07-30T10:03:50.473Z,23.50
2022-07-30T10:06:38.354Z,23.60
2022-07-30T10:09:28.396Z,23.70
2022-07-30T10:11:58.514Z,23.80
2022-07-30T10:14:33.588Z,24.00
2022-07-30T10:17:03.943Z,24.10
2022-07-30T10:19:40.078Z,24.20
2022-07-30T10:22:28.888Z,24.30
2022-07-30T10:25:23.015Z,24.40
2022-07-30T10:28:38.443Z,24.50
2022-07-30T10:31:46.423Z,24.50
2022-07-30T10:33:55.831Z,24.60
2022-07-30T10:36:24.773Z,24.60
2022-07-30T10:38:53.119Z,24.70
2022-07-30T10:42:28.413Z,24.70
2022-07-30T10:45:19.739Z,24.70
2022-07-30T10:47:48.761Z,24.80
2022-07-30T10:50:26.503Z,24.80
2022-07-30T10:52:57.436Z,24.80
2022-07-30T10:55:32.967Z,24.80
2022-07-30T10:58:08.476Z,24.80
2022-07-30T11:00:53.827Z,24.90
2022-07-30T11:03:40.004Z,24.90
2022-07-30T11:06:29.101Z,25.00
2022-07-30T11:08:57.289Z,25.10
2022-07-30T11:12:01.677Z,25.20
2022-07-30T11:14:14.770Z,25.30
2022-07-30T11:16:42.244Z,25.40
2022-07-30T11:19:56.838Z,25.60
2022-07-30T11:22:32.933Z,25.70
2022-07-30T11:25:00.357Z,25.90
2022-07-30T11:27:50.484Z,26.10
2022-07-30T11:30:18.166Z,26.10
2022-07-30T11:32:51.302Z,26.10
2022-07-30T11:35:23.143Z,26.10
2022-07-30T11:38:07.010Z,26.20
2022-07-30T11:40:59.265Z,26.30
2022-07-30T11:43:36.659Z,26.40
2022-07-30T11:46:16.410Z,26.50
2022-07-30T11:49:02.809Z,26.60
2022-07-30T11:51:45.496Z,26.70
2022-07-30T11:54:13.150Z,26.60
2022-07-30T11:56:54.696Z,26.50
2022-07-30T11:59:22.238Z,26.40
2022-07-30T12:01:56.954Z,26.30
2022-07-30T12:04:24.597Z,26.10
2022-07-30T12:06:51.788Z,25.90
2022-07-30T12:09:27.447Z,25.70
2022-07-30T12:11:55.863Z,25.40
2022-07-30T12:14:23.225Z,25.10
2022-07-30T12:16:53.142Z,24.90
2022-07-30T12:19:20.484Z,24.80
2022-07-30T12:21:52.745Z,24.60
2022-07-30T12:24:26.826Z,24.60
2022-07-30T12:27:06.412Z,24.60
2022-07-30T12:29:35.341Z,24.80
2022-07-30T12:32:02.988Z,25.00
2022-07-30T12:34:30.360Z,25.20
2022-07-30T12:37:10.715Z,25.60
2022-07-30T12:39:40.550Z,25.90
2022-07-30T12:42:07.817Z,26.30
2022-07-30T12:44:42.399Z,26.60
2022-07-30T12:47:27.870Z,27.00
2022-07-30T12:50:01.325Z,27.40
2022-07-30T12:52:34.743Z,27.60
2022-07-30T12:55:12.401Z,27.80
2022-07-30T12:57:53.609Z,27.90
2022-07-30T13:00:22.416Z,27.90
2022-07-30T13:02:49.732Z,27.90
2022-07-30T13:05:17.153Z,27.80
2022-07-30T13:08:00.842Z,27.80
2022-07-30T13:10:31.183Z,27.80
2022-07-30T13:12:59.838Z,28.00
2022-07-30T13:15:27.035Z,28.40
2022-07-30T13:17:54.507Z,28.90
2022-07-30T13:20:22.013Z,29.30
2022-07-30T13:22:49.228Z,29.40
2022-07-30T13:25:16.290Z,29.50
2022-07-30T13:27:43.748Z,29.40
2022-07-30T13:30:11.569Z,29.10
2022-07-30T13:32:39.077Z,28.90
2022-07-30T13:35:06.580Z,28.60
2022-07-30T13:37:37.843Z,28.40
2022-07-30T13:40:06.410Z,28.20
2022-07-30T13:42:33.857Z,28.00
2022-07-30T13:45:01.369Z,27.90
2022-07-30T13:47:29.077Z,27.60
2022-07-30T13:49:56.660Z,27.50
2022-07-30T13:52:23.928Z,27.50
2022-07-30T13:54:52.595Z,27.60
2022-07-30T13:57:20.301Z,28.00
2022-07-30T13:59:47.544Z,28.40
2022-07-30T14:02:16.858Z,28.90
2022-07-30T14:04:44.189Z,29.60
2022-07-30T14:07:13.208Z,30.30
2022-07-30T14:09:44.798Z,31.10
2022-07-30T14:12:15.330Z,31.80
2022-07-30T14:14:42.386Z,32.40
2022-07-30T14:17:09.609Z,32.80
2022-07-30T14:19:36.876Z,32.90
2022-07-30T14:22:03.932Z,32.80
2022-07-30T14:24:30.969Z,32.50
2022-07-30T14:26:58.539Z,32.00
2022-07-30T14:29:27.465Z,31.60
2022-07-30T14:31:55.496Z,31.30
2022-07-30T14:34:23.408Z,31.30
2022-07-30T14:36:51.958Z,31.50
2022-07-30T14:39:20.368Z,31.90
2022-07-30T14:41:47.438Z,32.30
2022-07-30T14:44:16.715Z,32.70
2022-07-30T14:46:52.307Z,33.10
2022-07-30T14:49:21.650Z,33.50
2022-07-30T14:51:50.231Z,33.80
2022-07-30T14:54:17.604Z,34.10
2022-07-30T14:56:44.893Z,34.30
2022-07-30T14:59:12.492Z,34.20
2022-07-30T15:01:39.678Z,34.10
2022-07-30T15:04:09.453Z,33.70
2022-07-30T15:06:37.822Z,33.10
2022-07-30T15:09:05.361Z,32.50
2022-07-30T15:11:44.905Z,31.80
2022-07-30T15:14:21.123Z,31.20
2022-07-30T15:16:48.623Z,30.50
2022-07-30T15:19:15.735Z,29.90
2022-07-30T15:21:44.732Z,29.40
2022-07-30T15:24:11.858Z,28.90
2022-07-30T15:26:39.359Z,28.50
2022-07-30T15:29:10.390Z,28.20
2022-07-30T15:31:40.230Z,27.80
2022-07-30T15:34:10.847Z,27.50
2022-07-30T15:36:39.340Z,27.30
2022-07-30T15:39:06.673Z,27.00
2022-07-30T15:41:34.348Z,26.80
2022-07-30T15:44:01.846Z,26.60
2022-07-30T15:46:29.082Z,26.40
2022-07-30T15:48:56.704Z,26.30
2022-07-30T15:51:24.082Z,26.30
2022-07-30T15:53:51.381Z,26.60
2022-07-30T15:56:18.948Z,27.10
2022-07-30T15:58:46.061Z,27.80
2022-07-30T16:01:13.433Z,28.60
2022-07-30T16:03:40.770Z,29.50
2022-07-30T16:06:07.878Z,30.10
2022-07-30T16:08:35.173Z,30.70
2022-07-30T16:11:04.453Z,31.10
2022-07-30T16:13:32.224Z,31.40
2022-07-30T16:15:59.450Z,31.70
2022-07-30T16:18:26.748Z,31.80
2022-07-30T16:20:54.684Z,31.70
2022-07-30T16:23:22.029Z,31.50
2022-07-30T16:25:49.085Z,31.10
2022-07-30T16:28:16.396Z,30.60
2022-07-30T16:30:50.870Z,30.00
2022-07-30T16:33:20.377Z,29.40
2022-07-30T16:35:49.353Z,28.90
2022-07-30T16:38:21.036Z,28.30
2022-07-30T16:40:48.007Z,27.80
2022-07-30T16:43:16.435Z,27.30
2022-07-30T16:45:48.763Z,26.80
2022-07-30T16:48:16.095Z,26.50
2022-07-30T16:50:43.321Z,26.10
2022-07-30T16:53:14.100Z,25.80
2022-07-30T16:55:45.522Z,25.60
2022-07-30T16:58:13.158Z,25.30
2022-07-30T17:00:41.345Z,25.00
2022-07-30T17:03:09.407Z,24.90
2022-07-30T17:05:45.239Z,24.70
2022-07-30T17:08:13.800Z,24.50
2022-07-30T17:10:41.499Z,24.50
2022-07-30T17:13:09.400Z,24.50
2022-07-30T17:15:36.774Z,24.50
2022-07-30T17:18:04.321Z,24.40
2022-07-30T17:20:32.398Z,24.40
2022-07-30T17:22:59.987Z,24.30
2022-07-30T17:25:27.767Z,24.30
2022-07-30T17:27:56.772Z,24.20
2022-07-30T17:30:24.925Z,24.10
2022-07-30T17:32:52.203Z,24.00
2022-07-30T17:35:20.761Z,23.80
2022-07-30T17:37:48.010Z,23.80
2022-07-30T17:40:29.820Z,23.70
2022-07-30T17:43:07.035Z,23.60
2022-07-30T17:45:36.029Z,23.60
2022-07-30T17:48:05.199Z,23.50
2022-07-30T17:50:33.790Z,23.50
2022-07-30T17:53:03.452Z,23.40
2022-07-30T17:55:34.848Z,23.40
2022-07-30T17:58:05.653Z,23.30
2022-07-30T18:00:35.373Z,23.20
2022-07-30T18:03:03.898Z,23.20
2022-07-30T18:05:32.024Z,23.10
2022-07-30T18:07:59.027Z,23.00
2022-07-30T18:10:26.166Z,23.00
2022-07-30T18:12:53.501Z,22.90
2022-07-30T18:15:20.961Z,22.90
2022-07-30T18:17:48.214Z,22.80
2022-07-30T18:20:15.556Z,22.70
2022-07-30T18:22:43.460Z,22.70
2022-07-30T18:25:19.138Z,22.70
2022-07-30T18:27:47.926Z,22.60
2022-07-30T18:30:15.699Z,22.60
2022-07-30T18:32:43.693Z,22.50
2022-07-30T18:35:14.440Z,22.50
2022-07-30T18:37:47.224Z,22.40
2022-07-30T18:40:20.618Z,22.40
2022-07-30T18:42:50.797Z,22.40
2022-07-30T18:45:18.161Z,22.30
2022-07-30T18:47:46.427Z,22.30
2022-07-30T18:50:15.913Z,22.20
2022-07-30T18:52:43.333Z,22.20
2022-07-30T18:55:12.503Z,22.20
2022-07-30T18:57:41.349Z,22.10
2022-07-30T19:00:35.044Z,22.10
2022-07-30T19:03:00.813Z,22.00
2022-07-30T19:05:28.548Z,22.00
2022-07-30T19:07:58.418Z,22.00
2022-07-30T19:10:27.532Z,21.90
2022-07-30T19:12:56.775Z,21.90
2022-07-30T19:15:24.702Z,21.90
2022-07-30T19:17:53.076Z,21.80
2022-07-30T19:20:21.096Z,21.80
2022-07-30T19:22:48.337Z,21.70
2022-07-30T19:25:18.217Z,21.60
2022-07-30T19:27:45.778Z,21.60
2022-07-30T19:30:13.412Z,21.50
2022-07-30T19:32:40.633Z,21.40
2022-07-30T19:35:14.521Z,21.30
2022-07-30T19:37:41.761Z,21.30
2022-07-30T19:40:09.827Z,21.20
2022-07-30T19:42:41.163Z,21.10
2022-07-30T19:45:12.152Z,21.00
2022-07-30T19:47:42.577Z,21.00
2022-07-30T19:50:11.751Z,20.80
2022-07-30T19:52:40.059Z,20.80
2022-07-30T19:55:31.036Z,20.70
2022-07-30T19:58:16.047Z,20.60
2022-07-30T20:00:49.456Z,20.50
2022-07-30T20:03:25.684Z,20.40
2022-07-30T20:05:57.616Z,20.40
2022-07-30T20:08:27.817Z,20.30
2022-07-30T20:10:57.932Z,20.20
2022-07-30T20:13:44.190Z,20.10
2022-07-30T20:16:17.561Z,20.00
2022-07-30T20:21:56.889Z,19.90
2022-07-30T20:24:21.082Z,19.80
2022-07-30T20:26:48.187Z,19.70
2022-07-30T20:32:03.461Z,19.60
2022-07-30T20:34:30.883Z,19.60
2022-07-30T20:37:13.895Z,19.50
2022-07-30T20:39:46.897Z,19.40
2022-07-30T20:42:16.169Z,19.40
2022-07-30T20:44:50.606Z,19.30
2022-07-30T20:47:34.937Z,19.30
2022-07-30T20:50:14.805Z,19.30
2022-07-30T20:52:46.431Z,19.20
2022-07-30T20:55:16.768Z,19.10
2022-07-30T20:57:51.404Z,19.10
2022-07-30T21:00:28.362Z,19.10
2022-07-30T21:02:55.432Z,19.00
2022-07-30T21:05:22.716Z,19.00
2022-07-30T21:07:54.241Z,19.00
2022-07-30T21:10:23.565Z,18.90
2022-07-30T21:12:53.313Z,18.90
2022-07-30T21:15:26.243Z,18.90
2022-07-30T21:17:54.253Z,18.90
2022-07-30T21:20:27.401Z,18.80
2022-07-30T21:22:56.495Z,18.80
2022-07-30T21:25:32.409Z,18.80
2022-07-30T21:28:02.987Z,18.80
2022-07-30T21:30:31.170Z,18.70
2022-07-30T21:33:00.998Z,18.70
2022-07-30T21:35:31.840Z,18.70
2022-07-30T21:37:59.789Z,18.70
2022-07-30T21:40:27.691Z,18.70
2022-07-30T21:42:56.660Z,18.60
2022-07-30T21:45:54.941Z,18.50
2022-07-30T21:48:22.657Z,18.50
2022-07-30T21:50:52.885Z,18.50
2022-07-30T21:53:29.772Z,18.40
2022-07-30T21:56:08.329Z,18.40
2022-07-30T21:58:35.549Z,18.40
2022-07-30T22:01:17.768Z,18.30
2022-07-30T22:04:06.658Z,18.30
2022-07-30T22:06:41.672Z,18.30
2022-07-30T22:09:19.611Z,18.20
2022-07-30T22:12:06.211Z,18.20
2022-07-30T22:14:34.216Z,18.20
2022-07-30T22:17:04.448Z,18.10
2022-07-30T22:19:32.711Z,18.10
2022-07-30T22:22:05.170Z,18.10
2022-07-30T22:24:47.809Z,18.10
2022-07-30T22:27:15.361Z,18.00
2022-07-30T22:29:44.100Z,18.00
2022-07-30T22:32:12.440Z,18.00
2022-07-30T22:34:39.666Z,18.00
2022-07-30T22:37:09.171Z,17.90
2022-07-30T22:39:51.801Z,17.90
2022-07-30T22:42:24.378Z,17.90
2022-07-30T22:44:54.621Z,17.80
2022-07-30T22:47:50.767Z,17.80
2022-07-30T22:50:11.899Z,17.80
2022-07-30T22:52:52.446Z,17.80
2022-07-30T22:55:26.056Z,17.80
2022-07-30T22:57:53.825Z,17.70
2022-07-30T23:00:27.684Z,17.70
2022-07-30T23:02:57.277Z,17.70
2022-07-30T23:05:24.990Z,17.60
2022-07-30T23:07:52.326Z,17.60
2022-07-30T23:10:20.305Z,17.60
2022-07-30T23:12:17.297Z,20.00
2022-07-30T23:12:19.168Z,19.70
2022-07-30T23:12:51.238Z,17.50
2022-07-30T23:15:19.815Z,17.50
2022-07-30T23:17:47.709Z,17.50
2022-07-30T23:20:20.746Z,17.40
2022-07-30T23:22:48.918Z,17.40
2022-07-30T23:25:16.060Z,17.40
2022-07-30T23:27:43.274Z,17.40
2022-07-30T23:30:12.216Z,17.40
2022-07-30T23:32:42.357Z,17.40
2022-07-30T23:35:10.520Z,17.30
2022-07-30T23:37:47.801Z,17.30
2022-07-30T23:40:18.437Z,17.30
2022-07-30T23:42:46.115Z,17.30
2022-07-30T23:45:13.857Z,17.20
2022-07-30T23:48:00.827Z,17.20
2022-07-30T23:50:28.168Z,17.20
2022-07-30T23:52:55.770Z,17.10
2022-07-30T23:55:23.008Z,17.10
2022-07-30T23:57:50.050Z,17.00
